createdAt,value
2019-01-19T00:00:07.794Z,4.91
2019-01-19T00:02:50.736Z,4.88
2019-01-19T00:06:11.350Z,4.84
2019-01-19T00:09:11.720Z,4.82
2019-01-19T00:12:09.328Z,4.77
2019-01-19T00:14:58.961Z,4.76
2019-01-19T00:18:12.348Z,4.73
2019-01-19T00:21:17.180Z,4.71
2019-01-19T00:24:42.713Z,4.70
2019-01-19T00:27:40.582Z,4.66
2019-01-19T00:30:27.384Z,4.63
2019-01-19T00:33:50.870Z,4.63
2019-01-19T00:36:45.551Z,4.59
2019-01-19T00:39:55.329Z,4.57
2019-01-19T00:42:36.772Z,4.63
2019-01-19T00:45:45.120Z,4.65
2019-01-19T00:49:20.418Z,4.62
2019-01-19T00:52:26.078Z,4.55
2019-01-19T00:55:43.176Z,4.43
2019-01-19T00:58:18.965Z,4.32
2019-01-19T01:00:54.002Z,4.22
2019-01-19T01:03:49.356Z,4.26
2019-01-19T01:06:55.036Z,4.31
2019-01-19T01:09:52.247Z,4.15
2019-01-19T01:12:49.272Z,4.15
2019-01-19T01:15:48.586Z,4.20
2019-01-19T01:19:14.880Z,4.09
2019-01-19T01:22:07.864Z,4.11
2019-01-19T01:24:54.347Z,4.12
2019-01-19T01:27:52.965Z,4.06
2019-01-19T01:30:50.426Z,4.09
2019-01-19T01:33:45.121Z,4.05
2019-01-19T01:36:39.719Z,4.00
2019-01-19T01:39:32.051Z,3.86
2019-01-19T01:42:29.451Z,3.85
2019-01-19T01:45:34.831Z,3.82
2019-01-19T01:48:29.378Z,3.80
2019-01-19T01:51:19.035Z,3.77
2019-01-19T01:54:19.094Z,3.74
2019-01-19T01:56:48.724Z,3.65
2019-01-19T01:59:51.269Z,3.46
2019-01-19T02:02:32.943Z,3.52
2019-01-19T02:05:47.188Z,3.54
2019-01-19T02:09:01.057Z,3.59
2019-01-19T02:12:04.639Z,3.51
2019-01-19T02:14:50.831Z,3.53
2019-01-19T02:18:23.312Z,3.62
2019-01-19T02:21:26.818Z,3.66
2019-01-19T02:24:48.501Z,3.66
2019-01-19T02:27:51.945Z,3.60
2019-01-19T02:30:57.664Z,3.57
2019-01-19T02:34:05.508Z,3.56
2019-01-19T02:37:17.402Z,3.48
2019-01-19T02:40:02.117Z,3.50
2019-01-19T02:43:03.937Z,3.46
2019-01-19T02:45:49.755Z,3.53
2019-01-19T02:48:56.692Z,3.53
2019-01-19T02:52:10.397Z,3.54
2019-01-19T02:55:13.699Z,3.50
2019-01-19T02:58:20.351Z,3.50
2019-01-19T03:01:19.610Z,3.55
2019-01-19T03:04:10.011Z,3.41
2019-01-19T03:07:28.876Z,3.40
2019-01-19T03:10:13.237Z,3.45
2019-01-19T03:13:23.927Z,3.40
2019-01-19T03:16:18.800Z,3.39
2019-01-19T03:19:07.850Z,3.41
2019-01-19T03:22:03.854Z,3.46
2019-01-19T03:24:57.879Z,3.46
2019-01-19T03:27:56.554Z,3.41
2019-01-19T03:30:55.672Z,3.39
2019-01-19T03:33:51.274Z,3.35
2019-01-19T03:36:55.087Z,3.29
2019-01-19T03:39:43.439Z,3.24
2019-01-19T03:43:09.445Z,3.29
2019-01-19T03:46:16.259Z,3.26
2019-01-19T03:49:24.317Z,3.21
2019-01-19T03:52:28.971Z,3.21
2019-01-19T03:55:34.546Z,3.19
2019-01-19T03:58:18.266Z,3.19
2019-01-19T04:01:30.273Z,3.16
2019-01-19T04:04:36.301Z,3.12
2019-01-19T04:07:39.820Z,3.02
2019-01-19T04:10:38.202Z,3.04
2019-01-19T04:13:28.217Z,3.11
2019-01-19T04:16:12.867Z,3.14
2019-01-19T04:18:58.548Z,3.19
2019-01-19T04:21:42.886Z,3.18
2019-01-19T04:24:19.457Z,3.20
2019-01-19T04:26:52.141Z,3.23
2019-01-19T04:29:21.665Z,3.22
2019-01-19T04:31:51.231Z,3.27
2019-01-19T04:34:20.726Z,3.29
2019-01-19T04:36:50.494Z,3.33
2019-01-19T04:39:19.999Z,3.34
2019-01-19T04:41:49.488Z,3.38
2019-01-19T04:44:18.990Z,3.36
2019-01-19T04:46:48.479Z,3.33
2019-01-19T04:49:17.964Z,3.32
2019-01-19T04:51:47.483Z,3.32
2019-01-19T04:54:16.998Z,3.32
2019-01-19T04:56:46.487Z,3.27
2019-01-19T04:59:15.979Z,3.25
2019-01-19T05:01:45.484Z,3.19
2019-01-19T05:04:15.004Z,3.20
2019-01-19T05:06:44.577Z,3.20
2019-01-19T05:09:14.061Z,3.26
2019-01-19T05:11:43.554Z,3.27
2019-01-19T05:14:13.046Z,3.21
2019-01-19T05:16:42.537Z,3.08
2019-01-19T05:19:12.026Z,2.97
2019-01-19T05:21:41.522Z,2.94
2019-01-19T05:24:11.029Z,2.89
2019-01-19T05:26:40.524Z,2.92
2019-01-19T05:29:11.077Z,2.95
2019-01-19T05:31:40.586Z,2.88
2019-01-19T05:34:10.078Z,2.85
2019-01-19T05:36:39.572Z,2.89
2019-01-19T05:39:09.144Z,2.90
2019-01-19T05:41:38.642Z,2.95
2019-01-19T05:44:08.142Z,2.96
2019-01-19T05:46:37.650Z,2.96
2019-01-19T05:49:07.155Z,3.01
2019-01-19T05:51:36.657Z,2.98
2019-01-19T05:54:06.147Z,2.95
2019-01-19T05:56:35.645Z,2.97
2019-01-19T05:59:05.205Z,2.97
2019-01-19T06:01:34.704Z,2.96
2019-01-19T06:04:04.282Z,3.00
2019-01-19T06:06:33.782Z,2.91
2019-01-19T06:09:05.155Z,2.90
2019-01-19T06:11:34.643Z,2.88
2019-01-19T06:14:04.222Z,2.86
2019-01-19T06:16:33.715Z,2.81
2019-01-19T06:19:03.473Z,2.86
2019-01-19T06:21:36.376Z,2.88
2019-01-19T06:24:05.807Z,2.87
2019-01-19T06:26:35.319Z,2.88
2019-01-19T06:29:04.893Z,2.88
2019-01-19T06:31:34.404Z,2.92
2019-01-19T06:34:03.923Z,2.86
2019-01-19T06:36:33.442Z,2.83
2019-01-19T06:39:02.938Z,2.84
2019-01-19T06:41:33.505Z,2.77
2019-01-19T06:44:02.998Z,2.70
2019-01-19T06:46:32.505Z,2.69
2019-01-19T06:49:02.018Z,2.67
2019-01-19T06:51:31.519Z,2.68
2019-01-19T06:54:01.674Z,2.60
2019-01-19T06:56:31.479Z,2.54
2019-01-19T06:59:00.971Z,2.46
2019-01-19T07:01:30.476Z,2.48
2019-01-19T07:03:59.988Z,2.54
2019-01-19T07:06:29.501Z,2.53
2019-01-19T07:08:59.006Z,2.53
2019-01-19T07:11:29.398Z,2.53
2019-01-19T07:13:59.151Z,2.59
2019-01-19T07:16:28.761Z,2.68
2019-01-19T07:18:58.268Z,2.63
2019-01-19T07:21:27.757Z,2.67
2019-01-19T07:23:57.251Z,2.69
2019-01-19T07:26:26.762Z,2.66
2019-01-19T07:28:56.257Z,2.69
2019-01-19T07:31:25.744Z,2.70
2019-01-19T07:33:55.491Z,2.75
2019-01-19T07:36:24.988Z,2.77
2019-01-19T07:38:54.482Z,2.73
2019-01-19T07:41:23.979Z,2.75
2019-01-19T07:43:53.477Z,2.65
2019-01-19T07:46:23.559Z,2.71
2019-01-19T07:48:53.118Z,2.72
2019-01-19T07:51:22.615Z,2.48
2019-01-19T07:53:52.108Z,2.51
2019-01-19T07:56:21.637Z,2.52
2019-01-19T07:58:52.089Z,2.57
2019-01-19T08:01:21.584Z,2.61
2019-01-19T08:03:51.089Z,2.72
2019-01-19T08:06:20.654Z,2.73
2019-01-19T08:08:50.218Z,2.73
2019-01-19T08:11:20.352Z,2.67
2019-01-19T08:13:50.033Z,2.62
2019-01-19T08:16:19.570Z,2.72
2019-01-19T08:18:49.158Z,2.65
2019-01-19T08:21:18.656Z,2.59
2019-01-19T08:23:48.166Z,2.63
2019-01-19T08:26:17.672Z,2.65
2019-01-19T08:28:47.178Z,2.67
2019-01-19T08:31:16.671Z,2.68
2019-01-19T08:33:46.181Z,2.73
2019-01-19T08:36:16.071Z,2.70
2019-01-19T08:38:45.602Z,2.76
2019-01-19T08:41:15.087Z,2.75
2019-01-19T08:43:51.369Z,2.84
2019-01-19T08:46:20.841Z,2.97
2019-01-19T08:48:50.341Z,2.97
2019-01-19T08:51:19.930Z,2.99
2019-01-19T08:53:49.394Z,3.14
2019-01-19T08:56:18.916Z,3.19
2019-01-19T08:58:48.618Z,3.25
2019-01-19T09:01:18.098Z,3.23
2019-01-19T09:03:47.626Z,3.29
2019-01-19T09:06:17.149Z,3.35
2019-01-19T09:08:46.707Z,3.42
2019-01-19T09:11:16.361Z,3.48
2019-01-19T09:13:46.771Z,3.54
2019-01-19T09:16:21.270Z,3.60
2019-01-19T09:18:50.769Z,3.79
2019-01-19T09:21:20.278Z,3.80
2019-01-19T09:24:01.434Z,3.76
2019-01-19T09:26:31.996Z,3.69
2019-01-19T09:29:01.503Z,3.65
2019-01-19T09:31:30.984Z,3.71
2019-01-19T09:34:00.486Z,3.80
2019-01-19T09:36:30.330Z,3.87
2019-01-19T09:38:59.998Z,3.98
2019-01-19T09:41:29.567Z,3.97
2019-01-19T09:43:59.060Z,3.82
2019-01-19T09:46:28.618Z,3.89
2019-01-19T09:48:58.213Z,3.88
2019-01-19T09:51:27.690Z,3.90
2019-01-19T09:53:57.266Z,3.95
2019-01-19T09:56:26.747Z,3.97
2019-01-19T09:58:56.249Z,3.94
2019-01-19T10:01:25.741Z,3.96
2019-01-19T10:03:55.255Z,3.80
2019-01-19T10:06:24.810Z,3.90
2019-01-19T10:08:54.398Z,3.90
2019-01-19T10:11:23.904Z,3.95
2019-01-19T10:13:53.413Z,4.05
2019-01-19T10:16:22.898Z,4.10
2019-01-19T10:18:52.395Z,4.12
2019-01-19T10:21:21.963Z,4.17
2019-01-19T10:23:51.461Z,4.17
2019-01-19T10:26:20.937Z,4.17
2019-01-19T10:28:51.137Z,4.20
2019-01-19T10:31:20.638Z,4.22
2019-01-19T10:33:50.136Z,4.31
2019-01-19T10:36:19.631Z,4.34
2019-01-19T10:38:49.131Z,4.41
2019-01-19T10:41:18.619Z,4.45
2019-01-19T10:43:49.336Z,4.44
2019-01-19T10:46:18.882Z,4.37
2019-01-19T10:48:48.399Z,4.43
2019-01-19T10:51:17.892Z,4.51
2019-01-19T10:53:47.395Z,4.60
2019-01-19T10:56:16.965Z,4.66
2019-01-19T10:58:46.460Z,4.72
2019-01-19T11:01:15.967Z,4.75
2019-01-19T11:03:45.497Z,4.83
2019-01-19T11:06:15.000Z,4.93
2019-01-19T11:08:44.492Z,4.94
2019-01-19T11:11:13.983Z,4.87
2019-01-19T11:13:43.487Z,4.93
2019-01-19T11:16:12.991Z,5.04
2019-01-19T11:18:42.520Z,5.03
2019-01-19T11:21:12.003Z,5.10
2019-01-19T11:23:41.491Z,5.08
2019-01-19T11:26:10.988Z,5.08
2019-01-19T11:28:40.510Z,5.08
2019-01-19T11:31:09.985Z,5.09
2019-01-19T11:33:39.479Z,5.01
2019-01-19T11:36:09.052Z,5.01
2019-01-19T11:38:38.559Z,5.13
2019-01-19T11:41:08.088Z,5.17
2019-01-19T11:43:37.581Z,5.18
2019-01-19T11:46:07.081Z,5.31
2019-01-19T11:48:36.618Z,5.29
2019-01-19T11:51:06.098Z,5.33
2019-01-19T11:53:35.621Z,5.30
2019-01-19T11:56:11.973Z,5.44
2019-01-19T11:58:36.407Z,5.49
2019-01-19T12:01:07.271Z,5.50
2019-01-19T12:03:36.840Z,5.52
2019-01-19T12:06:06.991Z,5.60
2019-01-19T12:08:36.571Z,5.67
2019-01-19T12:11:06.154Z,5.69
2019-01-19T12:13:35.650Z,5.75
2019-01-19T12:16:05.223Z,5.81
2019-01-19T12:18:34.718Z,5.80
2019-01-19T12:21:04.188Z,5.81
2019-01-19T12:23:33.666Z,5.81
2019-01-19T12:26:03.161Z,5.88
2019-01-19T12:28:32.694Z,5.92
2019-01-19T12:31:02.309Z,5.93
2019-01-19T12:33:31.866Z,5.91
2019-01-19T12:36:01.350Z,5.99
2019-01-19T12:38:30.845Z,5.96
2019-01-19T12:41:00.417Z,6.00
2019-01-19T12:43:29.900Z,6.06
2019-01-19T12:46:05.187Z,6.00
2019-01-19T12:48:34.721Z,6.04
2019-01-19T12:51:06.573Z,6.07
2019-01-19T12:53:36.059Z,6.04
2019-01-19T12:56:05.694Z,6.09
2019-01-19T12:58:35.190Z,6.10
2019-01-19T13:01:05.211Z,6.16
2019-01-19T13:03:34.903Z,6.13
2019-01-19T13:06:32.487Z,6.08
2019-01-19T13:09:12.468Z,6.16
2019-01-19T13:12:14.901Z,6.15
2019-01-19T13:15:26.060Z,6.37
2019-01-19T13:18:10.349Z,6.35
2019-01-19T13:21:18.087Z,6.09
2019-01-19T13:23:59.636Z,6.29
2019-01-19T13:27:05.915Z,6.19
2019-01-19T13:30:27.548Z,6.02
2019-01-19T13:33:34.579Z,6.01
2019-01-19T13:36:46.714Z,5.94
2019-01-19T13:39:54.807Z,5.98
2019-01-19T13:43:01.550Z,5.97
2019-01-19T13:45:54.147Z,6.05
2019-01-19T13:49:10.264Z,6.05
2019-01-19T13:52:02.734Z,5.99
2019-01-19T13:55:02.517Z,6.06
2019-01-19T13:58:06.584Z,6.17
2019-01-19T14:01:28.271Z,6.16
2019-01-19T14:04:20.061Z,6.04
2019-01-19T14:07:43.030Z,5.82
2019-01-19T14:10:42.132Z,5.94
2019-01-19T14:13:52.177Z,6.03
2019-01-19T14:16:47.351Z,6.07
2019-01-19T14:19:58.496Z,5.99
2019-01-19T14:23:17.548Z,6.00
2019-01-19T14:26:14.479Z,5.96
2019-01-19T14:29:23.608Z,5.92
2019-01-19T14:32:27.406Z,5.86
2019-01-19T14:35:21.624Z,5.89
2019-01-19T14:38:31.590Z,6.01
2019-01-19T14:41:14.434Z,6.04
2019-01-19T14:44:09.056Z,5.94
2019-01-19T14:47:08.957Z,5.92
2019-01-19T14:50:14.721Z,5.92
2019-01-19T14:53:27.613Z,6.16
2019-01-19T14:56:35.914Z,6.18
2019-01-19T14:59:15.837Z,6.34
2019-01-19T15:02:17.633Z,6.35
2019-01-19T15:05:34.429Z,6.36
2019-01-19T15:08:30.138Z,6.49
2019-01-19T15:11:43.388Z,6.42
2019-01-19T15:14:54.351Z,6.41
2019-01-19T15:18:13.650Z,6.39
2019-01-19T15:21:07.479Z,6.34
2019-01-19T15:24:05.526Z,6.36
2019-01-19T15:27:11.216Z,6.37
2019-01-19T15:30:15.729Z,6.34
2019-01-19T15:33:28.556Z,6.25
2019-01-19T15:36:14.054Z,6.22
2019-01-19T15:38:58.110Z,6.15
2019-01-19T15:42:03.757Z,5.88
2019-01-19T15:44:56.653Z,5.87
2019-01-19T15:47:58.357Z,5.46
2019-01-19T15:51:15.187Z,5.48
2019-01-19T15:54:00.462Z,5.44
2019-01-19T15:56:57.301Z,5.58
2019-01-19T16:00:02.261Z,5.67
2019-01-19T16:02:57.116Z,6.28
2019-01-19T16:05:50.367Z,7.47
2019-01-19T16:08:43.168Z,7.67
2019-01-19T16:11:49.013Z,7.62
2019-01-19T16:15:15.079Z,7.38
2019-01-19T16:18:02.924Z,6.74
2019-01-19T16:21:11.419Z,6.47
2019-01-19T16:24:07.607Z,6.26
2019-01-19T16:27:31.148Z,6.03
2019-01-19T16:30:54.361Z,5.72
2019-01-19T16:33:37.333Z,5.60
2019-01-19T16:36:50.150Z,5.42
2019-01-19T16:40:09.665Z,5.28
2019-01-19T16:43:08.866Z,5.05
2019-01-19T16:46:29.830Z,4.93
2019-01-19T16:49:26.226Z,4.90
2019-01-19T16:52:32.349Z,4.79
2019-01-19T16:55:51.675Z,4.65
2019-01-19T16:59:04.860Z,4.65
2019-01-19T17:02:33.748Z,4.65
2019-01-19T17:05:36.313Z,4.58
2019-01-19T17:08:25.942Z,4.41
2019-01-19T17:11:12.965Z,4.13
2019-01-19T17:14:19.221Z,4.33
2019-01-19T17:17:16.591Z,4.22
2019-01-19T17:20:13.030Z,4.18
2019-01-19T17:23:11.719Z,4.27
2019-01-19T17:26:18.982Z,4.23
2019-01-19T17:29:29.180Z,4.31
2019-01-19T17:32:12.286Z,4.22
2019-01-19T17:35:25.111Z,4.15
2019-01-19T17:38:09.771Z,4.01
2019-01-19T17:41:34.675Z,4.04
2019-01-19T17:44:30.579Z,3.94
2019-01-19T17:47:25.315Z,3.95
2019-01-19T17:50:21.836Z,3.89
2019-01-19T17:53:24.349Z,3.95
2019-01-19T17:56:32.232Z,3.95
2019-01-19T17:59:36.481Z,4.01
2019-01-19T18:02:37.695Z,4.07
2019-01-19T18:05:41.292Z,4.09
2019-01-19T18:08:27.789Z,4.09
2019-01-19T18:11:33.716Z,4.06
2019-01-19T18:14:44.753Z,4.01
2019-01-19T18:17:43.009Z,3.80
2019-01-19T18:20:36.115Z,3.53
2019-01-19T18:23:40.909Z,3.31
2019-01-19T18:26:33.552Z,3.23
2019-01-19T18:29:45.605Z,3.16
2019-01-19T18:32:30.408Z,3.07
2019-01-19T18:35:43.196Z,2.94
2019-01-19T18:38:47.433Z,3.01
2019-01-19T18:41:43.659Z,3.17
2019-01-19T18:44:52.308Z,3.17
2019-01-19T18:47:33.808Z,3.25
2019-01-19T18:50:46.732Z,3.34
2019-01-19T18:54:07.346Z,3.39
2019-01-19T18:57:13.209Z,3.31
2019-01-19T19:00:24.648Z,3.21
2019-01-19T19:03:21.641Z,3.21
2019-01-19T19:06:15.161Z,3.20
2019-01-19T19:09:22.226Z,3.02
2019-01-19T19:12:11.215Z,3.03
2019-01-19T19:15:31.075Z,3.08
2019-01-19T19:18:42.854Z,3.09
2019-01-19T19:22:06.810Z,3.10
2019-01-19T19:25:21.381Z,3.06
2019-01-19T19:28:47.817Z,3.16
2019-01-19T19:31:39.554Z,3.27
2019-01-19T19:35:01.820Z,3.35
2019-01-19T19:37:56.725Z,3.42
2019-01-19T19:41:03.538Z,3.46
2019-01-19T19:43:55.154Z,3.55
2019-01-19T19:47:13.071Z,3.54
2019-01-19T19:50:18.300Z,3.92
2019-01-19T19:52:48.327Z,3.87
2019-01-19T19:55:16.712Z,3.80
2019-01-19T19:57:46.475Z,3.73
2019-01-19T20:00:16.878Z,3.74
2019-01-19T20:02:46.949Z,3.71
2019-01-19T20:05:17.556Z,3.45
2019-01-19T20:07:47.373Z,3.40
2019-01-19T20:10:17.485Z,3.29
2019-01-19T20:12:47.017Z,3.10
2019-01-19T20:15:17.042Z,3.08
2019-01-19T20:17:46.540Z,2.88
2019-01-19T20:20:16.107Z,2.97
2019-01-19T20:22:45.611Z,2.97
2019-01-19T20:25:15.153Z,3.02
2019-01-19T20:27:44.650Z,2.83
2019-01-19T20:30:15.214Z,3.04
2019-01-19T20:32:44.703Z,3.12
2019-01-19T20:35:14.283Z,3.10
2019-01-19T20:37:44.753Z,3.15
2019-01-19T20:40:14.340Z,3.06
2019-01-19T20:42:43.821Z,3.07
2019-01-19T20:45:13.490Z,2.98
2019-01-19T20:47:43.067Z,2.89
2019-01-19T20:50:12.951Z,2.68
2019-01-19T20:52:42.439Z,2.67
2019-01-19T20:55:11.950Z,2.45
2019-01-19T20:57:41.542Z,2.30
2019-01-19T21:00:14.274Z,2.18
2019-01-19T21:02:43.776Z,2.23
2019-01-19T21:05:13.313Z,2.21
2019-01-19T21:07:42.837Z,2.19
2019-01-19T21:10:12.565Z,2.13
2019-01-19T21:12:42.086Z,2.15
2019-01-19T21:15:12.580Z,2.02
2019-01-19T21:17:42.067Z,1.95
2019-01-19T21:20:12.429Z,1.94
2019-01-19T21:22:41.911Z,1.84
2019-01-19T21:25:12.001Z,1.83
2019-01-19T21:27:42.573Z,1.68
2019-01-19T21:30:12.729Z,1.74
2019-01-19T21:32:43.227Z,1.75
2019-01-19T21:35:12.740Z,1.71
2019-01-19T21:37:42.239Z,1.66
2019-01-19T21:40:11.877Z,1.62
2019-01-19T21:42:41.367Z,1.63
2019-01-19T21:45:14.539Z,1.56
2019-01-19T21:47:44.040Z,1.64
2019-01-19T21:50:13.613Z,1.69
2019-01-19T21:52:43.136Z,1.62
2019-01-19T21:55:12.747Z,1.68
2019-01-19T21:57:42.270Z,1.49
2019-01-19T22:00:14.024Z,1.56
2019-01-19T22:02:43.520Z,1.60
2019-01-19T22:05:13.268Z,1.71
2019-01-19T22:07:42.775Z,1.75
2019-01-19T22:10:14.506Z,1.65
2019-01-19T22:12:44.016Z,1.67
2019-01-19T22:15:17.597Z,1.59
2019-01-19T22:17:47.193Z,1.60
2019-01-19T22:20:17.042Z,1.60
2019-01-19T22:22:46.533Z,1.76
2019-01-19T22:25:16.180Z,1.56
2019-01-19T22:27:49.626Z,1.63
2019-01-19T22:30:21.593Z,1.49
2019-01-19T22:32:55.331Z,1.45
2019-01-19T22:35:27.658Z,1.51
2019-01-19T22:37:57.217Z,1.61
2019-01-19T22:40:26.805Z,1.58
2019-01-19T22:42:58.959Z,1.67
2019-01-19T22:45:28.479Z,1.72
2019-01-19T22:47:57.978Z,1.74
2019-01-19T22:50:27.482Z,1.70
2019-01-19T22:52:56.982Z,1.77
2019-01-19T22:55:26.478Z,1.68
2019-01-19T22:57:55.998Z,1.57
2019-01-19T23:01:01.708Z,1.57
2019-01-19T23:03:33.640Z,1.70
2019-01-19T23:06:03.171Z,1.56
2019-01-19T23:08:32.659Z,1.48
2019-01-19T23:11:02.158Z,1.38
2019-01-19T23:13:31.655Z,1.37
2019-01-19T23:16:01.164Z,1.48
2019-01-19T23:18:30.735Z,1.43
2019-01-19T23:21:00.265Z,1.54
2019-01-19T23:23:30.768Z,1.61
2019-01-19T23:26:01.792Z,1.01
2019-01-19T23:28:31.296Z,1.56
2019-01-19T23:31:00.870Z,1.68
2019-01-19T23:33:30.371Z,1.67
2019-01-19T23:35:59.889Z,1.64
2019-01-19T23:38:29.373Z,1.67
2019-01-19T23:40:58.866Z,1.75
2019-01-19T23:43:28.354Z,1.80
2019-01-19T23:45:58.816Z,1.75
2019-01-19T23:48:28.305Z,1.80
2019-01-19T23:50:57.816Z,1.90
2019-01-19T23:53:27.289Z,2.03
2019-01-19T23:55:56.788Z,2.15
2019-01-19T23:58:26.275Z,2.03
